Insular — CSDD — position and weather

sailwx.info

Track history (hours):
 
Tides and Currents Weather Stations Pressure Air Temp Water Temp Dewpoint Dewpoint Depression Visibility Wind Speed Wind Dir Waves Ship Positions

Insular

Last reported at 2016-Sep-24 09:08 UTC. Time now 2016-Sep-26 07:07 UTC.
Position N 36°09' W 023°11'.

Length 120 m; draft 5.6 m.

Type: Ship (hazmat cat A). MMSI: 263752000.

Date/timePositionNaut miles runAvg speedWind from/ knotsBaromVisibWave heightAir tempDewpointWater temp
2016-Sep-24 09:08N 36°09' W 023°11'7914.1
2016-Sep-24 03:33N 36°54' W 024°31'1414.3
2016-Sep-24 02:34N 37°03' W 024°45'1414.3
2016-Sep-24 01:33N 37°12' W 024°59'1414.4
2016-Sep-24 00:33N 37°22' W 025°12'31 6.2
2016-Sep-23 19:33N 37°44' W 025°40'0 0.0
2016-Sep-23 17:33N 37°44' W 025°40'0 0.0
2016-Sep-23 16:33N 37°44' W 025°40'0 0.0
2016-Sep-23 15:33N 37°44' W 025°40'0 0.0
2016-Sep-23 13:33N 37°44' W 025°40'0 0.0
2016-Sep-23 09:33N 37°44' W 025°40'5 1.6
2016-Sep-23 06:34N 37°44' W 025°46'2713.4
2016-Sep-23 04:34N 38°03' W 026°10'1313.4
2016-Sep-23 03:33N 38°13' W 026°22'1312.8
2016-Sep-23 02:34N 38°22' W 026°34'1312.7
2016-Sep-23 01:33N 38°31' W 026°45'1312.8
2016-Sep-23 00:33N 38°40' W 026°57'6 0.5
2016-Sep-22 12:26N 38°43' W 027°03'12015.2
2016-Sep-22 04:33N 39°09' W 029°34'1616.0
2016-Sep-22 03:33N 39°12' W 029°54'50 2.6
2016-Sep-21 08:30N 39°20' W 030°58'4615.5
2016-Sep-21 05:33N 39°04' W 030°02'3015.2
2016-Sep-21 03:34N 38°54' W 029°26'1615.5
2016-Sep-21 02:33N 38°48' W 029°07'41 4.4
2016-Sep-20 17:22N 38°32' W 028°19'0 0.0
2016-Sep-20 08:33N 38°32' W 028°19'1 1.0
2016-Sep-20 07:33N 38°33' W 028°19'1111.1
2016-Sep-20 06:33N 38°29' W 028°05'5614.0
2016-Sep-20 02:34N 38°07' W 026°60'4314.2
2016-Sep-19 23:34N 37°52' W 026°09'24 6.1
2016-Sep-19 19:31N 37°44' W 025°40'0 0.0
2016-Sep-19 18:31N 37°44' W 025°40'0 0.0
2016-Sep-19 16:31N 37°44' W 025°40'0 0.0
2016-Sep-19 14:31N 37°44' W 025°40'0 0.0
2016-Sep-19 13:31N 37°44' W 025°40'0 0.0
2016-Sep-19 12:31N 37°44' W 025°40'0 0.0
2016-Sep-19 11:31N 37°44' W 025°40'0 0.0
2016-Sep-19 09:31N 37°44' W 025°40'1 0.4
2016-Sep-19 07:33N 37°44' W 025°39'9 9.0
2016-Sep-19 06:33N 37°41' W 025°28'3912.9
2016-Sep-19 03:33N 37°43' W 024°39'1312.9
2016-Sep-19 02:34N 37°43' W 024°23'2612.9
2016-Sep-19 00:33N 37°44' W 023°50'64913.5
2016-Sep-17 00:33N 38°32' W 010°07'48 6.9
2016-Sep-16 17:32N 38°43' W 009°07'0 0.0
2016-Sep-16 15:32N 38°43' W 009°07'0 0.0
2016-Sep-16 12:32N 38°43' W 009°07'0 0.0
2016-Sep-16 09:32N 38°43' W 009°07'0 0.0
2016-Sep-16 07:26N 38°43' W 009°07'0 0.0
2016-Sep-16 03:32N 38°43' W 009°07'0 0.0
2016-Sep-16 02:32N 38°43' W 009°07'0 0.0
2016-Sep-16 00:32N 38°43' W 009°07'0 0.0
2016-Sep-15 22:32N 38°43' W 009°07'0 0.0
2016-Sep-15 21:32N 38°43' W 009°07'0 0.0
2016-Sep-15 20:29N 38°43' W 009°07'0 0.0
2016-Sep-15 18:26N 38°43' W 009°07'0 0.0
2016-Sep-15 12:31N 38°43' W 009°07'0 0.0
2016-Sep-15 11:25N 38°43' W 009°07'0 0.0
2016-Sep-15 04:31N 38°43' W 009°07'0 0.0
2016-Sep-15 03:25N 38°43' W 009°07'0 0.0
2016-Sep-15 01:22N 38°43' W 009°07'0 0.0
2016-Sep-14 22:28N 38°43' W 009°07'0 0.0
2016-Sep-14 21:31N 38°43' W 009°07'0 0.0
2016-Sep-14 17:25N 38°43' W 009°07'0 0.0
2016-Sep-14 16:31N 38°43' W 009°07'0 0.0
2016-Sep-14 13:31N 38°43' W 009°07'0 0.0
2016-Sep-14 12:31N 38°43' W 009°07'0 0.0
2016-Sep-14 10:31N 38°43' W 009°07'0 0.0
2016-Sep-14 09:31N 38°43' W 009°07'  
Track history (hours):
 
Tides and Currents Weather Stations Pressure Air Temp Water Temp Dewpoint Dewpoint Depression Visibility Wind Speed Wind Dir Waves Ship Positions

Insular

Last reported at 2016-Sep-24 09:08 UTC. Time now 2016-Sep-26 07:07 UTC.
Position N 36°09' W 023°11'.

Length 120 m; draft 5.6 m.

Type: Ship (hazmat cat A). MMSI: 263752000.

Date/timePositionNaut miles runAvg speedWind from/ knotsBaromVisibWave heightAir tempDewpointWater temp
2016-Sep-24 09:08N 36°09' W 023°11'7914.1
2016-Sep-24 03:33N 36°54' W 024°31'1414.3
2016-Sep-24 02:34N 37°03' W 024°45'1414.3
2016-Sep-24 01:33N 37°12' W 024°59'1414.4
2016-Sep-24 00:33N 37°22' W 025°12'31 6.2
2016-Sep-23 19:33N 37°44' W 025°40'0 0.0
2016-Sep-23 17:33N 37°44' W 025°40'0 0.0
2016-Sep-23 16:33N 37°44' W 025°40'0 0.0
2016-Sep-23 15:33N 37°44' W 025°40'0 0.0
2016-Sep-23 13:33N 37°44' W 025°40'0 0.0
2016-Sep-23 09:33N 37°44' W 025°40'5 1.6
2016-Sep-23 06:34N 37°44' W 025°46'2713.4
2016-Sep-23 04:34N 38°03' W 026°10'1313.4
2016-Sep-23 03:33N 38°13' W 026°22'1312.8
2016-Sep-23 02:34N 38°22' W 026°34'1312.7
2016-Sep-23 01:33N 38°31' W 026°45'1312.8
2016-Sep-23 00:33N 38°40' W 026°57'6 0.5
2016-Sep-22 12:26N 38°43' W 027°03'12015.2
2016-Sep-22 04:33N 39°09' W 029°34'1616.0
2016-Sep-22 03:33N 39°12' W 029°54'50 2.6
2016-Sep-21 08:30N 39°20' W 030°58'4615.5
2016-Sep-21 05:33N 39°04' W 030°02'3015.2
2016-Sep-21 03:34N 38°54' W 029°26'1615.5
2016-Sep-21 02:33N 38°48' W 029°07'41 4.4
2016-Sep-20 17:22N 38°32' W 028°19'0 0.0
2016-Sep-20 08:33N 38°32' W 028°19'1 1.0
2016-Sep-20 07:33N 38°33' W 028°19'1111.1
2016-Sep-20 06:33N 38°29' W 028°05'5614.0
2016-Sep-20 02:34N 38°07' W 026°60'4314.2
2016-Sep-19 23:34N 37°52' W 026°09'24 6.1
2016-Sep-19 19:31N 37°44' W 025°40'0 0.0
2016-Sep-19 18:31N 37°44' W 025°40'0 0.0
2016-Sep-19 16:31N 37°44' W 025°40'0 0.0
2016-Sep-19 14:31N 37°44' W 025°40'0 0.0
2016-Sep-19 13:31N 37°44' W 025°40'0 0.0
2016-Sep-19 12:31N 37°44' W 025°40'0 0.0
2016-Sep-19 11:31N 37°44' W 025°40'0 0.0
2016-Sep-19 09:31N 37°44' W 025°40'1 0.4
2016-Sep-19 07:33N 37°44' W 025°39'9 9.0
2016-Sep-19 06:33N 37°41' W 025°28'3912.9
2016-Sep-19 03:33N 37°43' W 024°39'1312.9
2016-Sep-19 02:34N 37°43' W 024°23'2612.9
2016-Sep-19 00:33N 37°44' W 023°50'64913.5
2016-Sep-17 00:33N 38°32' W 010°07'48 6.9
2016-Sep-16 17:32N 38°43' W 009°07'0 0.0
2016-Sep-16 15:32N 38°43' W 009°07'0 0.0
2016-Sep-16 12:32N 38°43' W 009°07'0 0.0
2016-Sep-16 09:32N 38°43' W 009°07'0 0.0
2016-Sep-16 07:26N 38°43' W 009°07'0 0.0
2016-Sep-16 03:32N 38°43' W 009°07'0 0.0
2016-Sep-16 02:32N 38°43' W 009°07'0 0.0
2016-Sep-16 00:32N 38°43' W 009°07'0 0.0
2016-Sep-15 22:32N 38°43' W 009°07'0 0.0
2016-Sep-15 21:32N 38°43' W 009°07'0 0.0
2016-Sep-15 20:29N 38°43' W 009°07'0 0.0
2016-Sep-15 18:26N 38°43' W 009°07'0 0.0
2016-Sep-15 12:31N 38°43' W 009°07'0 0.0
2016-Sep-15 11:25N 38°43' W 009°07'0 0.0
2016-Sep-15 04:31N 38°43' W 009°07'0 0.0
2016-Sep-15 03:25N 38°43' W 009°07'0 0.0
2016-Sep-15 01:22N 38°43' W 009°07'0 0.0
2016-Sep-14 22:28N 38°43' W 009°07'0 0.0
2016-Sep-14 21:31N 38°43' W 009°07'0 0.0
2016-Sep-14 17:25N 38°43' W 009°07'0 0.0
2016-Sep-14 16:31N 38°43' W 009°07'0 0.0
2016-Sep-14 13:31N 38°43' W 009°07'0 0.0
2016-Sep-14 12:31N 38°43' W 009°07'0 0.0
2016-Sep-14 10:31N 38°43' W 009°07'0 0.0
2016-Sep-14 09:31N 38°43' W 009°07'  

Dump ship's entire track history